createdAt,value
2017-10-11T00:00:50.628Z,19.13
2017-10-11T00:03:18.475Z,22.60
2017-10-11T00:05:46.290Z,21.53
2017-10-11T00:08:14.121Z,22.87
2017-10-11T00:10:41.964Z,20.70
2017-10-11T00:13:09.791Z,22.20
2017-10-11T00:15:37.647Z,21.10
2017-10-11T00:18:05.485Z,18.50
2017-10-11T00:20:33.301Z,23.00
2017-10-11T00:23:01.128Z,18.63
2017-10-11T00:25:28.979Z,21.00
2017-10-11T00:27:56.801Z,22.30
2017-10-11T00:30:24.653Z,21.80
2017-10-11T00:32:52.472Z,20.90
2017-10-11T00:35:20.299Z,20.83
2017-10-11T00:37:48.153Z,19.73
2017-10-11T00:40:15.976Z,21.37
2017-10-11T00:42:43.793Z,21.53
2017-10-11T00:45:11.628Z,21.00
2017-10-11T00:47:39.465Z,16.70
2017-10-11T00:50:07.316Z,18.77
2017-10-11T00:52:35.127Z,19.50
2017-10-11T00:55:02.976Z,20.00
2017-10-11T00:57:30.861Z,23.37
2017-10-11T00:59:58.683Z,19.50
2017-10-11T01:02:26.497Z,20.00
2017-10-11T01:04:54.360Z,20.77
2017-10-11T01:07:22.197Z,21.00
2017-10-11T01:09:50.045Z,20.17
2017-10-11T01:12:17.893Z,21.80
2017-10-11T01:14:45.717Z,20.50
2017-10-11T01:17:13.546Z,22.23
2017-10-11T01:19:41.365Z,21.27
2017-10-11T01:22:09.233Z,18.87
2017-10-11T01:24:37.064Z,19.00
2017-10-11T01:27:04.913Z,17.47
2017-10-11T01:29:32.737Z,19.87
2017-10-11T01:32:00.572Z,19.33
2017-10-11T01:34:28.405Z,18.80
2017-10-11T01:36:56.227Z,18.37
2017-10-11T01:39:24.065Z,19.63
2017-10-11T01:41:51.891Z,14.90
2017-10-11T01:44:19.698Z,19.67
2017-10-11T01:46:47.529Z,18.07
2017-10-11T01:49:15.358Z,16.93
2017-10-11T01:51:43.180Z,18.43
2017-10-11T01:54:10.985Z,18.23
2017-10-11T01:56:38.830Z,19.30
2017-10-11T01:59:06.644Z,18.97
2017-10-11T02:01:34.462Z,20.80
2017-10-11T02:04:02.289Z,19.03
2017-10-11T02:06:30.109Z,18.30
2017-10-11T02:08:57.932Z,19.73
2017-10-11T02:11:25.753Z,18.53
2017-10-11T02:13:53.574Z,19.70
2017-10-11T02:16:21.366Z,18.50
2017-10-11T02:18:49.204Z,18.20
2017-10-11T02:21:17.030Z,20.37
2017-10-11T02:23:44.860Z,19.87
2017-10-11T02:26:12.688Z,20.20
2017-10-11T02:28:40.517Z,19.13
2017-10-11T02:31:08.357Z,19.30
2017-10-11T02:33:36.210Z,20.73
2017-10-11T02:36:04.065Z,19.87
2017-10-11T02:38:31.918Z,17.50
2017-10-11T02:40:59.728Z,20.37
2017-10-11T02:43:27.569Z,21.23
2017-10-11T02:45:55.383Z,18.37
2017-10-11T02:48:23.338Z,18.70
2017-10-11T02:50:51.169Z,19.57
2017-10-11T02:53:19.021Z,21.30
2017-10-11T02:55:46.857Z,20.53
2017-10-11T02:58:14.680Z,22.10
2017-10-11T03:00:42.492Z,20.90
2017-10-11T03:03:10.309Z,24.47
2017-10-11T03:05:38.165Z,22.10
2017-10-11T03:08:05.978Z,22.97
2017-10-11T03:10:33.815Z,22.60
2017-10-11T03:13:01.652Z,21.37
2017-10-11T03:15:29.484Z,26.10
2017-10-11T03:17:57.316Z,24.83
2017-10-11T03:20:25.132Z,25.17
2017-10-11T03:22:52.941Z,27.47
2017-10-11T03:25:20.753Z,27.30
2017-10-11T03:27:48.572Z,26.97
2017-10-11T03:30:16.386Z,23.60
2017-10-11T03:32:44.184Z,27.20
2017-10-11T03:35:11.992Z,26.63
2017-10-11T03:37:39.812Z,26.80
2017-10-11T03:40:07.646Z,27.73
2017-10-11T03:42:35.460Z,30.03
2017-10-11T03:45:03.276Z,24.83
2017-10-11T03:47:31.108Z,29.37
2017-10-11T03:49:58.915Z,22.60
2017-10-11T03:52:26.737Z,29.33
2017-10-11T03:54:54.546Z,28.60
2017-10-11T03:57:22.421Z,27.70
2017-10-11T03:59:50.217Z,28.40
2017-10-11T04:02:18.026Z,26.40
2017-10-11T04:04:45.849Z,25.97
2017-10-11T04:07:13.677Z,24.47
2017-10-11T04:09:41.500Z,23.53
2017-10-11T04:12:09.350Z,29.27
2017-10-11T04:14:37.167Z,27.97
2017-10-11T04:17:04.985Z,29.37
2017-10-11T04:19:32.790Z,29.43
2017-10-11T04:22:00.613Z,30.97
2017-10-11T04:24:28.446Z,31.87
2017-10-11T04:26:56.285Z,31.50
2017-10-11T04:29:24.551Z,30.70
2017-10-11T04:31:53.010Z,29.50
2017-10-11T04:34:20.910Z,34.27
2017-10-11T04:36:48.720Z,31.60
2017-10-11T04:39:16.553Z,26.23
2017-10-11T04:41:44.369Z,26.50
2017-10-11T04:44:12.212Z,28.63
2017-10-11T04:46:40.041Z,29.83
2017-10-11T04:49:07.893Z,29.00
2017-10-11T04:51:35.712Z,29.70
2017-10-11T04:54:03.540Z,28.40
2017-10-11T04:56:31.371Z,29.37
2017-10-11T04:58:59.176Z,30.00
2017-10-11T05:01:26.988Z,29.30
2017-10-11T05:03:54.810Z,30.10
2017-10-11T05:06:22.633Z,25.40
2017-10-11T05:08:50.453Z,27.77
2017-10-11T05:11:18.264Z,27.10
2017-10-11T05:13:46.073Z,27.30
2017-10-11T05:16:13.888Z,25.93
2017-10-11T05:18:41.726Z,26.20
2017-10-11T05:21:09.548Z,25.27
2017-10-11T05:23:37.364Z,27.80
2017-10-11T05:26:05.185Z,27.07
2017-10-11T05:28:33.011Z,29.10
2017-10-11T05:31:00.841Z,28.13
2017-10-11T05:33:28.682Z,27.27
2017-10-11T05:35:56.528Z,29.57
2017-10-11T05:38:24.348Z,27.90
2017-10-11T05:40:52.161Z,24.97
2017-10-11T05:43:19.982Z,26.40
2017-10-11T05:45:47.822Z,25.67
2017-10-11T05:48:15.662Z,26.67
2017-10-11T05:50:43.485Z,27.93
2017-10-11T05:53:11.293Z,26.77
2017-10-11T05:55:39.121Z,25.70
2017-10-11T05:58:06.941Z,27.33
2017-10-11T06:00:34.770Z,26.73
2017-10-11T06:03:02.589Z,24.33
2017-10-11T06:05:30.413Z,28.60
2017-10-11T06:07:58.232Z,29.47
2017-10-11T06:10:26.073Z,28.67
2017-10-11T06:12:53.884Z,27.20
2017-10-11T06:15:21.721Z,28.80
2017-10-11T06:17:49.525Z,23.90
2017-10-11T06:20:17.341Z,29.27
2017-10-11T06:22:45.160Z,27.73
2017-10-11T06:25:12.969Z,26.53
2017-10-11T06:27:40.790Z,22.90
2017-10-11T06:30:08.605Z,27.00
2017-10-11T06:32:36.432Z,20.80
2017-10-11T06:35:04.276Z,24.77
2017-10-11T06:37:32.136Z,16.50
2017-10-11T06:40:06.922Z,23.37
2017-10-11T06:42:34.745Z,21.50
2017-10-11T06:45:02.552Z,20.33
2017-10-11T06:47:30.385Z,22.43
2017-10-11T06:49:58.230Z,24.90
2017-10-11T06:52:26.060Z,25.10
2017-10-11T06:54:53.894Z,25.80
2017-10-11T06:57:21.737Z,23.83
2017-10-11T06:59:49.552Z,24.73
2017-10-11T07:02:17.390Z,22.93
2017-10-11T07:04:45.241Z,21.27
2017-10-11T07:07:13.061Z,22.07
2017-10-11T07:09:40.919Z,20.73
2017-10-11T07:12:08.733Z,23.43
2017-10-11T07:14:36.565Z,19.73
2017-10-11T07:17:04.387Z,20.70
2017-10-11T07:19:32.213Z,20.03
2017-10-11T07:22:00.055Z,19.73
2017-10-11T07:24:28.299Z,19.03
2017-10-11T07:26:56.108Z,19.23
2017-10-11T07:29:24.522Z,17.60
2017-10-11T07:31:52.365Z,17.50
2017-10-11T07:34:20.180Z,16.97
2017-10-11T07:36:48.005Z,16.80
2017-10-11T07:39:15.826Z,17.43
2017-10-11T07:41:43.649Z,18.03
2017-10-11T07:44:11.474Z,16.20
2017-10-11T07:46:39.315Z,18.53
2017-10-11T07:49:07.149Z,18.00
2017-10-11T07:51:35.003Z,19.93
2017-10-11T07:54:02.812Z,15.63
2017-10-11T07:56:30.633Z,16.43
2017-10-11T07:58:58.474Z,17.93
2017-10-11T08:01:26.280Z,21.37
2017-10-11T08:03:54.105Z,18.73
2017-10-11T08:06:21.924Z,15.87
2017-10-11T08:08:49.742Z,14.40
2017-10-11T08:11:17.568Z,17.17
2017-10-11T08:13:45.389Z,16.90
2017-10-11T08:16:13.231Z,13.97
2017-10-11T08:18:41.056Z,14.30
2017-10-11T08:21:08.917Z,13.97
2017-10-11T08:23:36.737Z,12.50
2017-10-11T08:26:04.562Z,14.00
2017-10-11T08:28:32.373Z,14.00
2017-10-11T08:31:00.181Z,12.97
2017-10-11T08:33:27.976Z,12.00
2017-10-11T08:35:55.780Z,12.53
2017-10-11T08:38:23.614Z,11.33
2017-10-11T08:40:51.423Z,6.20
2017-10-11T08:43:19.233Z,7.90
2017-10-11T08:45:47.074Z,9.47
2017-10-11T08:48:14.912Z,8.10
2017-10-11T08:50:42.779Z,7.10
2017-10-11T08:53:10.575Z,6.60
2017-10-11T08:55:38.402Z,5.80
2017-10-11T08:58:06.228Z,3.00
2017-10-11T09:00:34.044Z,3.23
2017-10-11T09:03:01.889Z,4.60
2017-10-11T09:05:29.689Z,5.13
2017-10-11T09:07:57.501Z,4.77
2017-10-11T09:10:25.321Z,5.93
2017-10-11T09:12:53.144Z,4.07
2017-10-11T09:15:20.949Z,6.30
2017-10-11T09:17:48.777Z,5.63
2017-10-11T09:20:16.624Z,5.67
2017-10-11T09:22:44.440Z,6.30
2017-10-11T09:25:12.236Z,4.70
2017-10-11T09:27:40.092Z,5.00
2017-10-11T09:30:07.974Z,6.60
2017-10-11T09:32:35.838Z,6.80
2017-10-11T09:35:03.636Z,5.70
2017-10-11T09:37:31.475Z,4.20
2017-10-11T09:39:59.317Z,4.87
2017-10-11T09:42:27.163Z,5.97
2017-10-11T09:44:54.973Z,5.97
2017-10-11T09:47:22.789Z,6.00
2017-10-11T09:49:50.637Z,6.33
2017-10-11T09:52:18.478Z,3.90
2017-10-11T09:54:46.297Z,8.60
2017-10-11T09:57:14.109Z,7.73
2017-10-11T09:59:41.929Z,9.07
2017-10-11T10:02:09.769Z,8.90
2017-10-11T10:04:37.647Z,10.00
2017-10-11T10:07:05.451Z,11.60
2017-10-11T10:09:33.281Z,8.33
2017-10-11T10:12:01.103Z,13.10
2017-10-11T10:14:28.928Z,13.93
2017-10-11T10:16:56.733Z,10.23
2017-10-11T10:19:24.556Z,14.00
2017-10-11T10:21:52.373Z,15.63
2017-10-11T10:24:20.189Z,16.97
2017-10-11T10:26:48.001Z,17.87
2017-10-11T10:29:15.809Z,19.57
2017-10-11T10:31:43.633Z,20.17
2017-10-11T10:34:11.448Z,23.93
2017-10-11T10:36:39.280Z,21.60
2017-10-11T10:39:07.086Z,18.80
2017-10-11T10:41:34.908Z,18.67
2017-10-11T10:44:02.734Z,17.30
2017-10-11T10:46:30.603Z,22.80
2017-10-11T10:48:58.431Z,24.73
2017-10-11T10:51:26.265Z,25.00
2017-10-11T10:53:54.098Z,24.90
2017-10-11T10:56:21.921Z,17.60
2017-10-11T10:58:49.733Z,26.00
2017-10-11T11:01:17.567Z,24.70
2017-10-11T11:03:45.371Z,23.97
2017-10-11T11:06:13.244Z,17.40
2017-10-11T11:08:41.061Z,25.27
2017-10-11T11:11:08.898Z,24.70
2017-10-11T11:13:36.720Z,23.80
2017-10-11T11:16:04.557Z,23.23
2017-10-11T11:18:32.365Z,25.10
2017-10-11T11:21:00.177Z,16.77
2017-10-11T11:23:27.988Z,19.40
2017-10-11T11:25:55.812Z,20.50
2017-10-11T11:28:23.617Z,24.70
2017-10-11T11:30:51.432Z,24.13
2017-10-11T11:33:19.253Z,24.97
2017-10-11T11:35:47.068Z,17.67
2017-10-11T11:38:14.885Z,18.13
2017-10-11T11:40:42.709Z,26.30
2017-10-11T11:43:10.541Z,24.60
2017-10-11T11:45:38.350Z,19.40
2017-10-11T11:48:06.191Z,23.07
2017-10-11T11:50:34.039Z,16.10
2017-10-11T11:53:01.910Z,23.53
2017-10-11T11:55:29.730Z,24.10
2017-10-11T11:57:57.576Z,21.77
2017-10-11T12:00:25.407Z,18.60
2017-10-11T12:02:53.225Z,18.87
2017-10-11T12:05:21.057Z,23.80
2017-10-11T12:07:48.887Z,20.97
2017-10-11T12:10:16.713Z,22.37
2017-10-11T12:12:44.541Z,16.90
2017-10-11T12:15:12.390Z,18.03
2017-10-11T12:17:40.217Z,16.10
2017-10-11T12:20:08.046Z,18.60
2017-10-11T12:22:35.872Z,19.27
2017-10-11T12:25:03.714Z,18.37
2017-10-11T12:27:31.529Z,20.30
2017-10-11T12:29:59.353Z,17.10
2017-10-11T12:32:27.165Z,17.87
2017-10-11T12:34:54.997Z,20.27
2017-10-11T12:37:22.821Z,19.07
2017-10-11T12:39:50.655Z,20.00
2017-10-11T12:42:18.502Z,17.33
2017-10-11T12:44:46.320Z,17.83
2017-10-11T12:47:14.169Z,13.07
2017-10-11T12:49:41.997Z,19.17
2017-10-11T12:52:09.824Z,13.70
2017-10-11T12:54:37.655Z,18.90
2017-10-11T12:57:05.496Z,17.77
2017-10-11T12:59:33.321Z,17.20
2017-10-11T13:02:01.150Z,17.17
2017-10-11T13:04:28.987Z,19.13
2017-10-11T13:06:56.824Z,17.80
2017-10-11T13:09:24.644Z,17.70
2017-10-11T13:11:52.473Z,17.13
2017-10-11T13:14:20.304Z,18.50
2017-10-11T13:16:48.131Z,17.13
2017-10-11T13:19:15.937Z,18.27
2017-10-11T13:21:43.781Z,18.63
2017-10-11T13:24:11.638Z,18.03
2017-10-11T13:26:39.496Z,18.43
2017-10-11T13:29:07.306Z,16.80
2017-10-11T13:31:35.109Z,13.23
2017-10-11T13:34:02.927Z,17.90
2017-10-11T13:36:30.732Z,17.57
2017-10-11T13:38:58.545Z,19.03
2017-10-11T13:41:26.362Z,19.93
2017-10-11T13:43:54.220Z,17.70
2017-10-11T13:46:22.049Z,17.50
2017-10-11T13:48:49.891Z,19.23
2017-10-11T13:51:17.688Z,17.50
2017-10-11T13:53:45.493Z,19.20
2017-10-11T13:56:13.316Z,16.20
2017-10-11T13:58:41.153Z,18.80
2017-10-11T14:01:08.950Z,17.37
2017-10-11T14:03:36.761Z,18.40
2017-10-11T14:06:04.549Z,16.97
2017-10-11T14:08:32.353Z,18.10
2017-10-11T14:11:00.156Z,20.27
2017-10-11T14:13:27.967Z,22.13
2017-10-11T14:15:55.744Z,20.37
2017-10-11T14:18:23.556Z,18.40
2017-10-11T14:20:51.365Z,20.27
2017-10-11T14:23:19.179Z,13.47
2017-10-11T14:25:46.977Z,17.17
2017-10-11T14:28:14.776Z,15.13
2017-10-11T14:30:42.619Z,17.70
2017-10-11T14:33:10.437Z,14.77
2017-10-11T14:35:38.229Z,16.47
2017-10-11T14:38:06.025Z,14.90
2017-10-11T14:40:33.835Z,14.30
2017-10-11T14:43:01.653Z,14.43
2017-10-11T14:45:29.474Z,12.90
2017-10-11T14:47:57.262Z,12.37
2017-10-11T14:50:25.072Z,13.43
2017-10-11T14:52:52.872Z,13.63
2017-10-11T14:55:20.693Z,13.53
2017-10-11T14:57:48.477Z,14.23
2017-10-11T15:00:16.268Z,13.80
2017-10-11T15:02:44.052Z,14.53
2017-10-11T15:05:11.864Z,13.57
2017-10-11T15:07:39.659Z,14.90
2017-10-11T15:10:07.441Z,11.47
2017-10-11T15:12:35.245Z,12.43
2017-10-11T15:15:03.061Z,12.60
2017-10-11T15:17:30.849Z,11.70
2017-10-11T15:19:58.649Z,11.13
2017-10-11T15:22:26.453Z,9.30
2017-10-11T15:24:54.233Z,9.33
2017-10-11T15:27:22.122Z,10.13
2017-10-11T15:29:50.164Z,8.00
2017-10-11T15:32:18.061Z,8.70
2017-10-11T15:34:45.830Z,8.10
2017-10-11T15:37:13.638Z,7.43
2017-10-11T15:39:41.436Z,8.00
2017-10-11T15:42:09.229Z,7.83
2017-10-11T15:44:37.025Z,7.80
2017-10-11T15:47:04.845Z,8.20
2017-10-11T15:49:32.625Z,9.50
2017-10-11T15:52:00.431Z,8.00
2017-10-11T15:54:28.218Z,8.40
2017-10-11T15:56:56.008Z,7.83
2017-10-11T15:59:23.804Z,7.87
2017-10-11T16:01:51.592Z,8.07
2017-10-11T16:04:19.385Z,7.70
2017-10-11T16:06:47.176Z,7.20
2017-10-11T16:09:14.953Z,7.20
2017-10-11T16:11:42.759Z,5.83
2017-10-11T16:14:10.542Z,8.00
2017-10-11T16:16:38.416Z,7.90
2017-10-11T16:19:06.225Z,7.20
2017-10-11T16:21:34.013Z,7.43
2017-10-11T16:24:01.829Z,5.60
2017-10-11T16:26:29.644Z,5.43
2017-10-11T16:28:57.469Z,4.90
2017-10-11T16:31:25.265Z,6.20
2017-10-11T16:33:53.052Z,6.20
2017-10-11T16:36:21.144Z,6.13
2017-10-11T16:38:48.951Z,3.80
2017-10-11T16:41:16.749Z,6.10
2017-10-11T16:43:44.593Z,6.47
2017-10-11T16:46:12.382Z,6.30
2017-10-11T16:48:40.206Z,5.73
2017-10-11T16:51:08.013Z,5.50
2017-10-11T16:53:35.821Z,5.20
2017-10-11T16:56:03.652Z,4.17
2017-10-11T16:58:31.441Z,4.90
2017-10-11T17:00:59.243Z,4.70
2017-10-11T17:03:27.024Z,4.57
2017-10-11T17:05:54.835Z,4.20
2017-10-11T17:08:22.619Z,4.50
2017-10-11T17:10:50.571Z,4.50
2017-10-11T17:13:18.377Z,4.30
2017-10-11T17:15:46.203Z,4.10
2017-10-11T17:18:14.013Z,4.50
2017-10-11T17:20:41.825Z,4.37
2017-10-11T17:23:09.637Z,5.17
2017-10-11T17:25:37.436Z,3.87
2017-10-11T17:28:05.284Z,4.73
2017-10-11T17:30:33.109Z,4.47
2017-10-11T17:33:00.917Z,5.40
2017-10-11T17:35:28.733Z,4.60
2017-10-11T17:37:56.535Z,5.23
2017-10-11T17:40:24.365Z,7.07
2017-10-11T17:42:52.188Z,6.20
2017-10-11T17:45:20.003Z,6.53
2017-10-11T17:47:47.804Z,5.90
2017-10-11T17:50:15.589Z,5.97
2017-10-11T17:52:43.391Z,7.70
2017-10-11T17:55:11.188Z,6.87
2017-10-11T17:57:38.988Z,7.60
2017-10-11T18:00:06.798Z,6.20
2017-10-11T18:02:34.679Z,7.00
2017-10-11T18:05:02.464Z,6.93
2017-10-11T18:07:30.262Z,8.30
2017-10-11T18:09:58.077Z,6.80
2017-10-11T18:12:25.885Z,8.40
2017-10-11T18:14:53.673Z,5.63
2017-10-11T18:17:21.517Z,5.80
2017-10-11T18:19:49.325Z,7.17
2017-10-11T18:22:17.108Z,7.00
2017-10-11T18:24:44.937Z,7.90
2017-10-11T18:27:12.797Z,8.13
2017-10-11T18:29:40.597Z,8.30
2017-10-11T18:32:08.528Z,8.20
2017-10-11T18:34:36.325Z,8.73
2017-10-11T18:37:04.153Z,9.87
2017-10-11T18:39:31.955Z,8.10
2017-10-11T18:41:59.780Z,9.23
2017-10-11T18:44:27.648Z,10.07
2017-10-11T18:46:55.461Z,11.60
2017-10-11T18:49:23.281Z,11.13
2017-10-11T18:51:51.108Z,11.10
2017-10-11T18:54:34.015Z,10.70
2017-10-11T18:57:01.863Z,10.17
2017-10-11T18:59:29.714Z,11.10
2017-10-11T19:01:57.545Z,12.00
2017-10-11T19:04:25.381Z,12.50
2017-10-11T19:06:53.202Z,12.70
2017-10-11T19:09:21.029Z,12.60
2017-10-11T19:11:48.948Z,12.27
2017-10-11T19:14:16.797Z,12.77
2017-10-11T19:16:44.649Z,11.50
2017-10-11T19:19:12.545Z,12.50
2017-10-11T19:21:40.392Z,11.57
2017-10-11T19:24:08.193Z,12.60
2017-10-11T19:26:36.033Z,11.50
2017-10-11T19:29:03.842Z,13.20
2017-10-11T19:31:31.680Z,11.30
2017-10-11T19:33:59.485Z,13.37
2017-10-11T19:36:27.363Z,12.20
2017-10-11T19:38:55.180Z,12.13
2017-10-11T19:41:23.006Z,11.73
2017-10-11T19:43:50.812Z,9.57
2017-10-11T19:46:18.620Z,11.70
2017-10-11T19:48:46.517Z,12.00
2017-10-11T19:51:14.361Z,12.27
2017-10-11T19:53:42.197Z,11.60
2017-10-11T19:56:10.034Z,12.20
2017-10-11T19:58:37.857Z,9.80
2017-10-11T20:01:05.689Z,11.40
2017-10-11T20:03:33.525Z,11.20
2017-10-11T20:06:01.361Z,10.00
2017-10-11T20:08:29.170Z,11.00
2017-10-11T20:10:56.998Z,8.93
2017-10-11T20:13:24.821Z,8.87
2017-10-11T20:15:52.666Z,8.40
2017-10-11T20:18:20.494Z,10.47
2017-10-11T20:20:48.340Z,11.43
2017-10-11T20:23:16.164Z,10.53
2017-10-11T20:25:43.972Z,10.80
2017-10-11T20:28:11.796Z,9.60
2017-10-11T20:30:39.626Z,10.50
2017-10-11T20:33:07.444Z,8.03
2017-10-11T20:35:35.246Z,7.53
2017-10-11T20:38:03.052Z,9.10
2017-10-11T20:40:31.655Z,7.43
2017-10-11T20:42:59.469Z,8.67
2017-10-11T20:45:27.373Z,8.00
2017-10-11T20:47:55.226Z,6.73
2017-10-11T20:50:23.045Z,8.87
2017-10-11T20:52:50.857Z,8.60
2017-10-11T20:55:18.648Z,7.77
2017-10-11T20:57:46.454Z,6.30
2017-10-11T21:00:14.285Z,7.17
2017-10-11T21:02:42.100Z,7.07
2017-10-11T21:05:09.928Z,8.80
2017-10-11T21:07:37.756Z,7.77
2017-10-11T21:10:05.582Z,8.20
2017-10-11T21:12:33.385Z,8.27
2017-10-11T21:15:01.232Z,6.03
2017-10-11T21:17:29.056Z,8.77
2017-10-11T21:19:56.865Z,7.67
2017-10-11T21:22:24.677Z,8.77
2017-10-11T21:24:52.464Z,9.60
2017-10-11T21:27:20.262Z,8.50
2017-10-11T21:29:48.073Z,8.60
2017-10-11T21:32:15.888Z,7.47
2017-10-11T21:34:43.729Z,6.93
2017-10-11T21:37:11.538Z,7.63
2017-10-11T21:39:39.361Z,8.10
2017-10-11T21:42:07.153Z,7.63
2017-10-11T21:44:34.936Z,7.60
2017-10-11T21:47:02.732Z,6.00
2017-10-11T21:49:30.529Z,7.13
2017-10-11T21:51:58.329Z,7.50
2017-10-11T21:54:26.108Z,5.83
2017-10-11T21:56:53.905Z,7.57
2017-10-11T21:59:21.708Z,7.40
2017-10-11T22:01:49.500Z,7.17
2017-10-11T22:04:17.293Z,7.30
2017-10-11T22:06:45.102Z,5.93
2017-10-11T22:09:12.873Z,7.70
2017-10-11T22:11:40.684Z,5.73
2017-10-11T22:14:08.472Z,7.20
2017-10-11T22:16:36.264Z,7.57
2017-10-11T22:19:04.041Z,8.33
2017-10-11T22:21:31.819Z,7.47
2017-10-11T22:23:59.604Z,7.30
2017-10-11T22:26:27.409Z,7.70
2017-10-11T22:28:55.205Z,7.00
2017-10-11T22:31:23.017Z,9.20
2017-10-11T22:33:50.809Z,8.10
2017-10-11T22:36:18.650Z,8.97
2017-10-11T22:38:46.468Z,7.60
2017-10-11T22:41:14.259Z,8.70
2017-10-11T22:43:42.068Z,9.93
2017-10-11T22:46:09.864Z,10.20
2017-10-11T22:48:37.687Z,9.80
2017-10-11T22:51:05.476Z,8.90
2017-10-11T22:53:33.277Z,7.30
2017-10-11T22:56:01.056Z,10.10
2017-10-11T22:58:28.853Z,10.20
2017-10-11T23:00:56.669Z,10.40
2017-10-11T23:03:24.517Z,9.87
2017-10-11T23:05:52.351Z,9.90
2017-10-11T23:08:20.170Z,9.43
2017-10-11T23:10:48.018Z,10.10
2017-10-11T23:13:15.843Z,11.50
2017-10-11T23:15:43.685Z,10.50
2017-10-11T23:18:11.520Z,9.50
2017-10-11T23:20:39.346Z,11.80
2017-10-11T23:23:07.165Z,10.63
2017-10-11T23:25:34.972Z,11.70
2017-10-11T23:28:02.772Z,10.60
2017-10-11T23:30:30.617Z,12.03
2017-10-11T23:32:58.479Z,12.63
2017-10-11T23:35:26.325Z,12.00
2017-10-11T23:37:54.145Z,11.73
2017-10-11T23:40:21.981Z,13.10
2017-10-11T23:42:49.793Z,12.10
2017-10-11T23:45:17.605Z,12.00
2017-10-11T23:47:45.414Z,12.90
2017-10-11T23:50:13.231Z,13.23
2017-10-11T23:52:41.049Z,11.87
2017-10-11T23:55:08.872Z,13.33
2017-10-11T23:57:36.685Z,12.80
